Tropical Cyclones
[Index]
Main Index Home Page Stock Weather Photos Extreme Storms Discussion Storm News and Storm Chasing Reports Tropical Cyclones / Hurricanes / Typhoons Weather Data and Links Wild Fires / Bushfires Weather Observation Techniques Weather Picture Catalogue Tornado Pictures and Reports Stock Video Footage and DVDs for sale
Season 2005-2006 Tropical Cyclone HUBERT Track Map
Season 2005-2006 Summaries: [BoM-AU] [JTWC-AU] [JTWC-SIO] [JTWC-SPAC] [JTWC-SH]
<<- Previous TC | JTWC 2005-2006 Season | Next TC ->>

click for intensity scale information  Lat/long Grid: Show Hide

 Date Labels: Show Hide

Joint Typhoon Warning Centre Cyclone Data

Name: HUBERT

03 Apr 2006 00:00 UTC to 08 Apr 2006 06:00 UTC

    date/time    lat    long     hPa   cat  kts
2006-04-03 00   15.6   114.3    1006         15          
2006-04-03 06   15.4   113.8    1004         20          
2006-04-03 12   14.8   113.6    1004         20          
2006-04-03 18   14.3   114.0    1002         25          
2006-04-04 00   13.9   114.6    1004         25          
2006-04-04 06   14.1   115.0    1004         25          
2006-04-04 12   14.5   115.2    1000         30          
2006-04-04 18   14.9   115.4    1000         30          
2006-04-05 00   15.4   116.0    1000         30          
2006-04-05 06   16.1   116.3    1000         30          
2006-04-05 12   16.7   116.4     993    1    40          
2006-04-05 18   17.3   116.3     989    1    45          
2006-04-06 00   17.8   116.0     985    1    50          
2006-04-06 00   17.8   116.0     985    1    50          
2006-04-06 06   18.3   115.5     984    2    55          
2006-04-06 06   18.3   115.5     984    2    55          
2006-04-06 12   19.0   115.3     984    2    55          
2006-04-06 12   19.0   115.3     984    2    55          
2006-04-06 18   19.6   115.1     984    2    55          
2006-04-06 18   19.6   115.1     984    2    55          
2006-04-07 00   20.2   115.0     984    2    55          
2006-04-07 00   20.2   115.0     984    2    55          
2006-04-07 06   20.7   115.0     987    1    50          
2006-04-07 06   20.7   115.0     987    1    50          
2006-04-07 12   21.1   115.3     991    1    45          
2006-04-07 18   21.5   115.4    1000         30          
2006-04-08 00   21.9   115.4    1002         25          
2006-04-08 06   22.2   115.4    1004         20          
Winds are 1-min average.

Tropical cyclone tracks developed by Michael Bath using data from the Joint Typhoon Warning Centre Best Tracks and Google Maps.


[Australian Severe Weather index] [Copyright Notice] [Email Contacts] [Search This Site] [Privacy Policy]
Document: tropical_cyclone_hubert.htm Updated: 28 June 2017